Terminal Aerodrome Forecast
Issued by NWS Sioux Falls, SD

Home | Current Version | Previous Version | Text Only | Print | Product List | Glossary Off
Versions: 1 2 3 4 5 6 7 8 9 10 11 12 13 14 15 16 17 18 19 20 21 22 23

000
FTUS43 KFSD 051136
TAFFSD
TAF
KFSD 051136Z 0512/0612 18013KT P6SM BKN100
      TEMPO 0512/0513 6SM TSRA SCT060 OVC100CB
     FM051400 17013G19KT P6SM BKN120
     FM051900 17018G26KT P6SM FEW040 SCT080
     FM060100 16014G19KT P6SM SCT040 BKN200
     FM060700 21015KT 4SM TSRA SCT020CB OVC040
     FM061000 27013KT P6SM -SHRA OVC015=

USA.gov is the U.S. government's official web portal to all federal, state and local government web resources and services.